createdAt,value
2023-03-26T00:03:40.922Z,0.90
2023-03-26T00:08:45.971Z,0.97
2023-03-26T00:13:50.138Z,0.93
2023-03-26T00:18:54.224Z,1.00
2023-03-26T00:24:04.236Z,1.00
2023-03-26T00:29:08.311Z,1.03
2023-03-26T00:34:15.571Z,0.90
2023-03-26T00:39:18.400Z,1.00
2023-03-26T00:44:23.952Z,1.10
2023-03-26T00:49:30.575Z,0.80
2023-03-26T00:54:33.297Z,0.80
2023-03-26T00:59:35.972Z,0.70
2023-03-26T01:04:40.241Z,0.87
2023-03-26T01:09:50.208Z,0.90
2023-03-26T01:14:56.602Z,0.87
2023-03-26T01:20:13.149Z,1.10
2023-03-26T01:25:17.618Z,0.90
2023-03-26T01:30:26.594Z,1.00
2023-03-26T01:35:41.023Z,1.03
2023-03-26T01:40:49.537Z,0.90
2023-03-26T01:45:53.151Z,0.90
2023-03-26T01:50:58.704Z,0.87
2023-03-26T01:56:12.679Z,0.70
2023-03-26T02:01:27.146Z,0.80
2023-03-26T02:06:37.449Z,0.80
2023-03-26T02:11:42.386Z,0.70
2023-03-26T02:16:47.014Z,0.93
2023-03-26T02:21:51.406Z,1.00
2023-03-26T02:26:55.916Z,0.80
2023-03-26T02:31:58.621Z,0.67
2023-03-26T02:37:01.389Z,0.67
2023-03-26T02:42:05.590Z,0.83
2023-03-26T02:47:08.481Z,0.80
2023-03-26T02:52:11.307Z,0.70
2023-03-26T02:57:16.394Z,0.80
2023-03-26T03:02:19.385Z,1.00
2023-03-26T03:07:24.369Z,0.90
2023-03-26T03:12:28.358Z,0.70
2023-03-26T03:17:31.019Z,0.70
2023-03-26T03:22:33.659Z,0.80
2023-03-26T03:27:39.261Z,0.90
2023-03-26T03:32:42.110Z,0.90
2023-03-26T03:37:46.018Z,0.70
2023-03-26T03:42:50.035Z,0.90
2023-03-26T03:47:53.092Z,0.90
2023-03-26T03:52:56.094Z,0.90
2023-03-26T03:58:00.276Z,1.03
2023-03-26T04:03:06.272Z,1.33
2023-03-26T04:08:09.195Z,1.00
2023-03-26T04:13:14.067Z,0.80
2023-03-26T04:18:16.893Z,1.10
2023-03-26T04:23:21.001Z,0.90
2023-03-26T04:28:30.394Z,0.93
2023-03-26T04:33:35.408Z,0.80
2023-03-26T04:38:41.712Z,0.90
2023-03-26T04:43:50.508Z,0.80
2023-03-26T04:48:54.344Z,1.23
2023-03-26T04:53:58.931Z,1.00
2023-03-26T04:59:03.328Z,1.03
2023-03-26T05:04:06.328Z,1.00
2023-03-26T05:09:10.684Z,1.10
2023-03-26T05:14:14.871Z,0.90
2023-03-26T05:19:17.578Z,1.57
2023-03-26T05:24:20.279Z,1.10
2023-03-26T05:29:24.266Z,1.00
2023-03-26T05:34:27.212Z,1.10
2023-03-26T05:39:29.943Z,1.13
2023-03-26T05:44:33.989Z,1.07
2023-03-26T05:49:36.638Z,0.93
2023-03-26T05:54:39.326Z,1.00
2023-03-26T05:59:43.505Z,1.10
2023-03-26T06:04:46.302Z,1.00
2023-03-26T06:09:49.329Z,0.83
2023-03-26T06:14:53.274Z,1.57
2023-03-26T06:19:56.029Z,1.17
2023-03-26T06:24:58.692Z,1.10
2023-03-26T06:30:02.699Z,1.27
2023-03-26T06:35:07.165Z,1.30
2023-03-26T06:40:10.720Z,1.80
2023-03-26T06:45:14.758Z,1.30
2023-03-26T06:50:17.574Z,1.40
2023-03-26T06:55:20.293Z,0.97
2023-03-26T07:00:25.619Z,1.00
2023-03-26T07:05:29.562Z,1.20
2023-03-26T07:10:33.681Z,1.13
2023-03-26T07:15:38.814Z,1.20
2023-03-26T07:20:44.972Z,1.00
2023-03-26T07:25:49.618Z,1.20
2023-03-26T07:31:06.499Z,0.87
2023-03-26T07:36:21.641Z,1.20
2023-03-26T07:41:32.007Z,0.80
2023-03-26T07:46:37.201Z,1.10
2023-03-26T07:51:40.343Z,1.07
2023-03-26T07:56:54.970Z,1.07
2023-03-26T08:02:18.004Z,1.30
2023-03-26T08:07:32.512Z,1.00
2023-03-26T08:12:43.314Z,1.10
2023-03-26T08:17:53.257Z,1.50
2023-03-26T08:23:03.641Z,1.20
2023-03-26T08:28:18.605Z,1.20
2023-03-26T08:33:27.063Z,1.93
2023-03-26T08:38:29.741Z,1.20
2023-03-26T08:44:04.742Z,1.60
2023-03-26T08:49:33.893Z,1.40
2023-03-26T08:55:04.214Z,1.17
2023-03-26T09:00:38.673Z,0.97
2023-03-26T09:05:59.025Z,1.10
2023-03-26T09:11:34.042Z,1.13
2023-03-26T09:17:04.960Z,1.53
2023-03-26T09:22:42.918Z,1.40
2023-03-26T09:28:11.374Z,1.40
2023-03-26T09:33:33.828Z,1.13
2023-03-26T09:38:46.747Z,1.50
2023-03-26T09:44:24.394Z,1.50
2023-03-26T09:49:47.384Z,1.27
2023-03-26T09:55:41.169Z,1.02
2023-03-26T10:00:51.649Z,1.40
2023-03-26T10:06:06.953Z,1.00
2023-03-26T10:11:22.818Z,1.08
2023-03-26T10:16:34.460Z,1.20
2023-03-26T10:21:46.686Z,0.70
2023-03-26T10:27:10.837Z,1.00
2023-03-26T10:32:24.062Z,1.05
2023-03-26T10:37:39.924Z,0.95
2023-03-26T10:43:12.675Z,1.02
2023-03-26T10:48:29.305Z,1.15
2023-03-26T10:53:37.285Z,1.15
2023-03-26T10:58:48.453Z,1.15
2023-03-26T11:03:56.404Z,1.00
2023-03-26T11:09:12.786Z,0.90
2023-03-26T11:14:34.198Z,1.23
2023-03-26T11:19:46.555Z,1.20
2023-03-26T11:25:15.593Z,0.88
2023-03-26T11:30:30.982Z,1.20
2023-03-26T11:35:41.680Z,1.00
2023-03-26T11:40:50.682Z,0.80
2023-03-26T11:45:55.059Z,1.05
2023-03-26T11:51:04.206Z,1.00
2023-03-26T11:56:14.894Z,0.93
2023-03-26T12:01:22.728Z,0.80
2023-03-26T12:06:28.856Z,0.90
2023-03-26T12:11:35.392Z,1.00
2023-03-26T12:16:57.169Z,1.17
2023-03-26T12:21:59.873Z,0.80
2023-03-26T12:27:20.256Z,1.08
2023-03-26T12:32:35.505Z,1.00
2023-03-26T12:37:47.332Z,1.20
2023-03-26T12:44:48.103Z,1.45
2023-03-26T12:48:19.780Z,1.10
2023-03-26T12:53:42.899Z,1.08
2023-03-26T12:59:03.883Z,1.10
2023-03-26T13:04:38.390Z,1.02
2023-03-26T13:10:01.073Z,1.13
2023-03-26T13:15:19.627Z,1.10
2023-03-26T13:20:30.588Z,1.05
2023-03-26T13:25:42.097Z,1.20
2023-03-26T13:30:53.736Z,1.13
2023-03-26T13:36:21.893Z,1.10
2023-03-26T13:41:39.583Z,1.23
2023-03-26T13:46:47.067Z,1.30
2023-03-26T13:51:56.334Z,1.20
2023-03-26T13:57:06.105Z,1.40
2023-03-26T14:02:14.974Z,1.13
2023-03-26T14:07:24.710Z,0.93
2023-03-26T14:12:35.080Z,0.95
2023-03-26T14:17:42.147Z,1.05
2023-03-26T14:23:03.152Z,1.13
2023-03-26T14:28:28.743Z,1.00
2023-03-26T14:33:51.264Z,0.80
2023-03-26T14:39:13.255Z,1.20
2023-03-26T14:44:48.177Z,1.07
2023-03-26T14:50:37.661Z,1.00
2023-03-26T14:56:16.432Z,1.00
2023-03-26T15:01:25.948Z,1.33
2023-03-26T15:07:12.798Z,1.10
2023-03-26T15:12:34.277Z,1.03
2023-03-26T15:18:02.676Z,1.13
2023-03-26T15:23:50.346Z,1.10
2023-03-26T15:29:35.496Z,2.20
2023-03-26T15:35:14.825Z,1.10
2023-03-26T15:40:44.734Z,1.20
2023-03-26T15:45:54.992Z,3.60
2023-03-26T15:51:14.438Z,2.20
2023-03-26T15:56:41.566Z,0.90
2023-03-26T16:02:03.066Z,1.17
2023-03-26T16:07:15.901Z,0.87
2023-03-26T16:12:35.538Z,1.20
2023-03-26T16:18:23.100Z,1.00
2023-03-26T16:23:58.759Z,1.07
2023-03-26T16:29:18.482Z,1.00
2023-03-26T16:34:34.553Z,1.20
2023-03-26T16:39:44.819Z,2.00
2023-03-26T16:44:56.900Z,1.90
2023-03-26T16:50:15.854Z,2.17
2023-03-26T16:55:36.354Z,1.60
2023-03-26T17:01:05.538Z,2.00
2023-03-26T17:06:32.130Z,1.80
2023-03-26T17:11:49.354Z,1.60
2023-03-26T17:17:11.147Z,1.83
2023-03-26T17:22:29.138Z,2.00
2023-03-26T17:27:45.000Z,4.33
2023-03-26T17:33:11.742Z,3.00
2023-03-26T17:38:51.295Z,2.70
2023-03-26T17:44:21.668Z,3.50
2023-03-26T17:49:40.115Z,3.13
2023-03-26T17:54:52.669Z,3.00
2023-03-26T18:00:03.550Z,3.20
2023-03-26T18:05:11.255Z,3.60
2023-03-26T21:46:12.983Z,0.70
2023-03-26T21:51:19.262Z,0.70
2023-03-26T21:56:38.166Z,0.63
2023-03-26T22:01:48.395Z,0.80
2023-03-26T22:06:56.680Z,0.70
2023-03-26T22:11:59.320Z,1.60
2023-03-26T22:17:03.436Z,1.10
2023-03-26T22:22:06.116Z,1.13
2023-03-26T22:27:08.748Z,1.40
2023-03-26T22:32:12.890Z,1.13
2023-03-26T22:37:16.120Z,1.37
2023-03-26T22:42:19.569Z,1.23
2023-03-26T22:47:23.850Z,0.90
2023-03-26T22:52:27.121Z,0.80
2023-03-26T22:57:30.006Z,1.10
2023-03-26T23:02:34.263Z,0.70
2023-03-26T23:07:37.507Z,0.83
2023-03-26T23:12:41.376Z,0.80
2023-03-26T23:17:45.460Z,0.77
2023-03-26T23:22:57.884Z,0.90
2023-03-26T23:28:00.787Z,0.80
2023-03-26T23:33:05.059Z,0.70
2023-03-26T23:38:08.183Z,0.57
2023-03-26T23:43:10.831Z,0.90
2023-03-26T23:48:17.334Z,0.70
2023-03-26T23:53:20.926Z,0.70
2023-03-26T23:58:24.698Z,0.73
